Time;durP1;ratioP1;P1;durP2;ratioP2;P2;SDS_P1;SDS_P2;PMS_P1;PMS_P2;Temp;Humidity;BMP_temperature;BMP_pressure;BME280_temperature;BME280_humidity;BME280_pressure;Samples;Min_cycle;Max_cycle;Signal;HPM_P1;HPM_P2
2021/01/23 00:00:36;0.00;0.00;0.62;0.00;0.00;0.62;1.93;1.40;;;22.40;27.80;;;;;;2257108;61;20358;-63
2021/01/23 00:03:22;0.00;0.00;0.62;0.00;0.00;0.62;1.87;1.60;;;22.40;27.80;;;;;;2279888;61;20367;-60
2021/01/23 00:06:07;0.00;0.00;0.62;0.00;0.00;0.62;2.00;1.70;;;22.40;27.80;;;;;;2328710;58;21598;-58
2021/01/23 00:08:52;0.00;0.00;0.62;0.00;0.00;0.62;1.70;1.50;;;22.40;27.90;;;;;;2259325;61;20386;-59
2021/01/23 00:11:36;0.00;0.00;0.62;0.00;0.00;0.62;1.83;1.50;;;22.40;27.80;;;;;;2389412;53;20420;-58
2021/01/23 00:14:21;0.00;0.00;0.62;0.00;0.00;0.62;2.07;1.63;;;22.40;27.80;;;;;;2256512;61;20579;-59
2021/01/23 00:17:06;0.00;0.00;0.62;0.00;0.00;0.62;2.37;1.80;;;22.40;27.90;;;;;;2284407;58;20587;-60
2021/01/23 00:19:52;0.00;0.00;0.62;0.00;0.00;0.62;1.63;1.50;;;22.40;27.90;;;;;;2361683;53;20375;-60
2021/01/23 00:22:37;0.00;0.00;0.62;0.00;0.00;0.62;1.80;1.40;;;22.40;27.90;;;;;;2256576;61;20469;-57
2021/01/23 00:25:23;0.00;0.00;0.62;0.00;0.00;0.62;2.23;2.00;;;22.40;27.90;;;;;;2257422;61;20425;-57
2021/01/23 00:28:07;0.00;0.00;0.62;0.00;0.00;0.62;2.77;1.80;;;22.40;27.80;;;;;;2257895;61;20402;-59
2021/01/23 00:30:52;0.00;0.00;0.62;0.00;0.00;0.62;2.20;2.00;;;22.40;27.80;;;;;;2257782;61;20644;-60
2021/01/23 00:33:36;0.00;0.00;0.62;0.00;0.00;0.62;1.97;1.60;;;22.40;27.80;;;;;;2257658;61;20370;-60
2021/01/23 00:36:22;0.00;0.00;0.62;0.00;0.00;0.62;2.27;1.90;;;22.40;27.80;;;;;;2257838;61;20751;-60
2021/01/23 00:39:07;0.00;0.00;0.62;0.00;0.00;0.62;1.80;1.50;;;22.40;27.80;;;;;;2258327;61;20410;-59
2021/01/23 00:41:52;0.00;0.00;0.62;0.00;0.00;0.62;1.73;1.53;;;22.40;27.80;;;;;;2257705;61;20427;-60
2021/01/23 00:44:36;0.00;0.00;0.62;0.00;0.00;0.62;2.03;1.50;;;22.40;27.70;;;;;;2387956;53;20479;-59
2021/01/23 00:47:21;0.00;0.00;0.62;0.00;0.00;0.62;1.57;1.37;;;22.40;27.70;;;;;;2257885;61;20422;-59
2021/01/23 00:50:07;0.00;0.00;0.62;0.00;0.00;0.62;1.97;1.57;;;22.40;27.70;;;;;;2257743;61;20367;-60
2021/01/23 00:52:52;0.00;0.00;0.62;0.00;0.00;0.62;1.77;1.47;;;22.40;27.70;;;;;;2257937;61;20616;-60
2021/01/23 00:55:37;0.00;0.00;0.62;0.00;0.00;0.62;2.60;1.70;;;22.40;27.70;;;;;;2257353;61;20778;-60
2021/01/23 00:58:22;0.00;0.00;0.62;0.00;0.00;0.62;1.70;1.47;;;22.40;27.70;;;;;;2257645;61;20522;-60
2021/01/23 01:01:07;0.00;0.00;0.62;0.00;0.00;0.62;1.90;1.23;;;22.40;27.70;;;;;;2258847;61;20391;-60
2021/01/23 01:03:53;0.00;0.00;0.62;0.00;0.00;0.62;1.40;1.27;;;22.40;27.70;;;;;;2401798;53;20374;-60
2021/01/23 01:06:39;0.00;0.00;0.62;0.00;0.00;0.62;2.30;1.30;;;22.40;27.70;;;;;;2257743;61;20414;-60
2021/01/23 01:09:24;0.00;0.00;0.62;0.00;0.00;0.62;1.60;1.50;;;22.40;27.70;;;;;;2257816;61;20463;-60
2021/01/23 01:12:09;0.00;0.00;0.62;0.00;0.00;0.62;1.63;1.20;;;22.40;28.20;;;;;;2534482;45;20382;-59
2021/01/23 01:14:53;0.00;0.00;0.62;0.00;0.00;0.62;1.50;1.30;;;22.40;27.70;;;;;;2257814;61;20379;-60
2021/01/23 01:17:38;0.00;0.00;0.62;0.00;0.00;0.62;2.77;1.87;;;22.40;27.70;;;;;;2257534;61;20386;-60
2021/01/23 01:20:23;0.00;0.00;0.62;0.00;0.00;0.62;2.40;1.60;;;22.40;27.70;;;;;;2257865;61;20395;-60
2021/01/23 01:23:07;0.00;0.00;0.62;0.00;0.00;0.62;2.37;1.43;;;22.40;27.70;;;;;;2257984;61;20418;-60
2021/01/23 01:25:53;0.00;0.00;0.62;0.00;0.00;0.62;1.70;1.30;;;22.40;27.70;;;;;;2256995;61;20371;-60
2021/01/23 01:28:37;0.00;0.00;0.62;0.00;0.00;0.62;1.73;1.40;;;22.40;27.70;;;;;;2257537;61;20403;-60
2021/01/23 01:31:22;0.00;0.00;0.62;0.00;0.00;0.62;1.60;1.23;;;22.30;27.60;;;;;;2405753;53;20394;-60
2021/01/23 01:34:07;0.00;0.00;0.62;0.00;0.00;0.62;1.70;1.33;;;22.40;27.70;;;;;;2257407;61;20743;-60
2021/01/23 01:36:53;0.00;0.00;0.62;0.00;0.00;0.62;2.80;1.77;;;22.30;27.70;;;;;;2257037;61;20395;-60
2021/01/23 01:39:37;0.00;0.00;0.62;0.00;0.00;0.62;1.87;1.47;;;22.30;27.70;;;;;;2257579;61;20421;-60
2021/01/23 01:42:23;0.00;0.00;0.62;0.00;0.00;0.62;1.70;1.20;;;22.40;27.70;;;;;;2257641;61;20395;-60
2021/01/23 01:45:09;0.00;0.00;0.62;0.00;0.00;0.62;1.57;1.27;;;22.30;27.70;;;;;;2256161;61;20588;-61
2021/01/23 01:47:54;0.00;0.00;0.62;0.00;0.00;0.62;1.70;1.40;;;22.30;27.70;;;;;;2400142;53;20398;-59
2021/01/23 01:50:39;0.00;0.00;0.62;0.00;0.00;0.62;2.10;1.60;;;22.30;27.70;;;;;;2257759;61;20595;-61
2021/01/23 01:53:24;0.00;0.00;0.62;0.00;0.00;0.62;2.40;1.53;;;22.30;27.70;;;;;;2257452;61;20367;-61
2021/01/23 01:56:09;0.00;0.00;0.62;0.00;0.00;0.62;2.23;1.43;;;22.30;27.70;;;;;;2257832;61;20367;-59
2021/01/23 01:58:54;0.00;0.00;0.62;0.00;0.00;0.62;1.50;1.10;;;22.30;27.70;;;;;;2257762;61;20372;-59
2021/01/23 02:01:38;0.00;0.00;0.62;0.00;0.00;0.62;1.70;1.33;;;22.30;27.70;;;;;;2255561;61;20395;-61
2021/01/23 02:04:34;0.00;0.00;0.62;0.00;0.00;0.62;1.83;1.43;;;22.30;27.70;;;;;;2382543;53;20719;-60
2021/01/23 02:07:31;0.00;0.00;0.62;0.00;0.00;0.62;1.70;1.43;;;22.30;27.70;;;;;;2257422;61;20370;-61
2021/01/23 02:10:31;0.00;0.00;0.62;0.00;0.00;0.62;1.77;1.50;;;22.30;27.70;;;;;;2256862;61;20406;-60
2021/01/23 02:13:25;0.00;0.00;0.62;0.00;0.00;0.62;1.70;1.20;;;22.30;27.70;;;;;;2257562;61;20379;-59
2021/01/23 02:16:18;0.00;0.00;0.62;0.00;0.00;0.62;1.80;1.10;;;22.30;27.70;;;;;;2257544;61;20367;-59
2021/01/23 02:19:17;0.00;0.00;0.62;0.00;0.00;0.62;1.40;1.00;;;22.30;27.70;;;;;;2257509;61;20488;-59
2021/01/23 02:22:36;0.00;0.00;0.62;0.00;0.00;0.62;1.53;1.30;;;22.30;27.70;;;;;;2404889;53;20639;-60
2021/01/23 02:25:22;0.00;0.00;0.62;0.00;0.00;0.62;1.57;1.47;;;22.30;27.70;;;;;;2513416;45;20407;-60
2021/01/23 02:28:14;0.00;0.00;0.62;0.00;0.00;0.62;1.80;1.53;;;22.30;27.70;;;;;;2257669;61;20375;-61
2021/01/23 02:31:07;0.00;0.00;0.62;0.00;0.00;0.62;1.90;1.30;;;22.30;27.70;;;;;;2257351;61;20363;-61
2021/01/23 02:33:57;0.00;0.00;0.62;0.00;0.00;0.62;1.70;1.27;;;22.30;27.70;;;;;;2257602;61;20380;-60
2021/01/23 02:36:43;0.00;0.00;0.62;0.00;0.00;0.62;1.90;1.53;;;22.30;28.20;;;;;;2384266;53;20367;-60
2021/01/23 02:39:29;0.00;0.00;0.62;0.00;0.00;0.62;2.30;1.20;;;22.30;27.70;;;;;;2257354;61;20374;-60
2021/01/23 02:42:14;0.00;0.00;0.62;0.00;0.00;0.62;1.80;1.47;;;22.30;27.80;;;;;;2257256;61;20406;-60
2021/01/23 02:44:59;0.00;0.00;0.62;0.00;0.00;0.62;1.70;1.30;;;22.30;27.80;;;;;;2257552;61;20371;-60
2021/01/23 02:47:46;0.00;0.00;0.62;0.00;0.00;0.62;2.07;1.43;;;22.30;27.80;;;;;;2257381;61;20355;-60
2021/01/23 02:50:32;0.00;0.00;0.62;0.00;0.00;0.62;2.60;1.77;;;22.30;27.70;;;;;;2257459;61;20368;-60
2021/01/23 02:53:20;0.00;0.00;0.62;0.00;0.00;0.62;1.70;1.20;;;22.30;27.80;;;;;;2257359;61;20378;-60
2021/01/23 02:56:09;0.00;0.00;0.62;0.00;0.00;0.62;2.20;1.30;;;22.30;27.80;;;;;;2351770;53;20443;-61
2021/01/23 02:59:00;0.00;0.00;0.62;0.00;0.00;0.62;1.57;1.00;;;22.30;27.80;;;;;;2257442;61;20395;-61
2021/01/23 03:01:45;0.00;0.00;0.62;0.00;0.00;0.62;1.50;1.20;;;22.30;27.70;;;;;;2257040;61;20459;-60
2021/01/23 03:04:32;0.00;0.00;0.62;0.00;0.00;0.62;1.40;1.10;;;22.20;27.70;;;;;;2257498;61;20719;-61
2021/01/23 03:07:17;0.00;0.00;0.62;0.00;0.00;0.62;1.60;1.30;;;22.20;27.70;;;;;;2257617;61;20368;-60
2021/01/23 03:10:05;0.00;0.00;0.62;0.00;0.00;0.62;2.27;1.10;;;22.20;27.70;;;;;;2257328;61;20414;-60
2021/01/23 03:12:50;0.00;0.00;0.62;0.00;0.00;0.62;2.33;1.70;;;22.30;27.80;;;;;;2257328;61;20395;-61
2021/01/23 03:15:36;0.00;0.00;0.62;0.00;0.00;0.62;1.70;1.20;;;22.30;27.80;;;;;;2390762;53;20363;-60
2021/01/23 03:18:21;0.00;0.00;0.62;0.00;0.00;0.62;1.40;1.10;;;22.20;28.20;;;;;;2257354;61;20386;-61
2021/01/23 03:21:06;0.00;0.00;0.62;0.00;0.00;0.62;2.13;1.40;;;22.20;27.70;;;;;;2257300;61;20558;-60
2021/01/23 03:23:51;0.00;0.00;0.62;0.00;0.00;0.62;1.73;1.20;;;22.20;27.70;;;;;;2257126;61;20376;-61
2021/01/23 03:26:36;0.00;0.00;0.62;0.00;0.00;0.62;1.87;1.43;;;22.20;27.70;;;;;;2257251;61;20382;-61
2021/01/23 03:29:20;0.00;0.00;0.62;0.00;0.00;0.62;3.13;2.00;;;22.20;27.70;;;;;;2257680;61;20387;-61
2021/01/23 03:32:06;0.00;0.00;0.62;0.00;0.00;0.62;3.77;3.10;;;22.20;27.70;;;;;;2257185;61;20460;-61
2021/01/23 03:34:51;0.00;0.00;0.62;0.00;0.00;0.62;7.50;6.60;;;22.20;27.50;;;;;;2257195;61;20374;-62
2021/01/23 03:37:36;0.00;0.00;0.62;0.00;0.00;0.62;4.37;3.97;;;22.20;26.30;;;;;;2257107;61;20395;-61
2021/01/23 03:40:21;0.00;0.00;0.62;0.00;0.00;0.62;5.60;3.90;;;22.10;26.40;;;;;;2257232;61;20378;-61
2021/01/23 03:43:06;0.00;0.00;0.62;0.00;0.00;0.62;5.90;5.07;;;22.10;26.70;;;;;;2392872;53;20366;-60
2021/01/23 03:45:50;0.00;0.00;0.62;0.00;0.00;0.62;6.70;5.20;;;22.00;26.70;;;;;;2257295;61;20553;-61
2021/01/23 03:48:35;0.00;0.00;0.62;0.00;0.00;0.62;6.17;4.37;;;22.00;26.80;;;;;;2257585;61;20727;-61
2021/01/23 03:51:19;0.00;0.00;0.62;0.00;0.00;0.62;4.67;4.23;;;22.00;26.80;;;;;;2380744;53;20853;-61
2021/01/23 03:54:05;0.00;0.00;0.62;0.00;0.00;0.62;5.63;4.07;;;21.90;26.70;;;;;;2256751;61;20442;-60
2021/01/23 03:56:49;0.00;0.00;0.62;0.00;0.00;0.62;4.80;4.30;;;21.90;27.30;;;;;;2257432;61;20406;-61
2021/01/23 03:59:34;0.00;0.00;0.62;0.00;0.00;0.62;4.60;4.17;;;21.80;26.70;;;;;;2257436;61;20375;-61
2021/01/23 04:02:19;0.00;0.00;0.62;0.00;0.00;0.62;4.90;4.40;;;21.80;26.70;;;;;;2257808;61;20419;-62
2021/01/23 04:05:06;0.00;0.00;0.62;0.00;0.00;0.62;5.60;4.73;;;21.80;26.70;;;;;;2257504;61;20414;-61
2021/01/23 04:07:51;0.00;0.00;0.62;0.00;0.00;0.62;5.47;4.20;;;21.80;26.70;;;;;;2257806;61;20823;-61
2021/01/23 04:10:37;0.00;0.00;0.62;0.00;0.00;0.62;6.37;4.37;;;21.80;26.60;;;;;;2324595;53;20402;-61
2021/01/23 04:13:22;0.00;0.00;0.62;0.00;0.00;0.62;5.33;4.07;;;21.80;26.60;;;;;;2258249;61;20383;-61
2021/01/23 04:16:06;0.00;0.00;0.62;0.00;0.00;0.62;6.07;5.17;;;21.70;26.50;;;;;;2257789;61;20367;-61
2021/01/23 04:18:51;0.00;0.00;0.62;0.00;0.00;0.62;5.47;4.70;;;21.70;26.50;;;;;;2389482;53;20452;-61
2021/01/23 04:21:35;0.00;0.00;0.62;0.00;0.00;0.62;4.83;4.33;;;21.70;27.00;;;;;;2257949;61;20759;-58
2021/01/23 04:24:20;0.00;0.00;0.62;0.00;0.00;0.62;5.37;4.57;;;21.70;26.50;;;;;;2258125;61;20374;-60
2021/01/23 04:27:06;0.00;0.00;0.62;0.00;0.00;0.62;5.90;5.30;;;21.60;26.40;;;;;;2377324;53;20362;-60
2021/01/23 04:29:50;0.00;0.00;0.62;0.00;0.00;0.62;5.50;4.70;;;21.60;26.40;;;;;;2258071;61;20446;-60
2021/01/23 04:32:35;0.00;0.00;0.62;0.00;0.00;0.62;7.03;5.73;;;21.60;26.80;;;;;;2258130;61;20382;-61
2021/01/23 04:35:20;0.00;0.00;0.62;0.00;0.00;0.62;6.23;4.67;;;21.50;26.20;;;;;;2258024;61;20374;-61
2021/01/23 04:38:05;0.00;0.00;0.62;0.00;0.00;0.62;5.93;5.33;;;21.50;26.30;;;;;;2404094;53;20378;-61
2021/01/23 04:40:50;0.00;0.00;0.62;0.00;0.00;0.62;5.93;5.20;;;21.50;26.30;;;;;;2257980;61;20379;-61
2021/01/23 04:43:35;0.00;0.00;0.62;0.00;0.00;0.62;5.80;4.90;;;21.40;26.20;;;;;;2258070;61;20359;-60
2021/01/23 04:46:20;0.00;0.00;0.62;0.00;0.00;0.62;5.37;4.87;;;21.40;26.20;;;;;;2560377;45;20367;-60
2021/01/23 04:49:04;0.00;0.00;0.62;0.00;0.00;0.62;6.10;5.37;;;21.40;26.30;;;;;;2258081;61;20394;-61
2021/01/23 04:51:49;0.00;0.00;0.62;0.00;0.00;0.62;5.50;4.67;;;21.30;26.20;;;;;;2257952;61;20387;-61
2021/01/23 04:54:35;0.00;0.00;0.62;0.00;0.00;0.62;6.33;5.23;;;21.30;26.20;;;;;;2382814;53;20608;-60
2021/01/23 04:57:19;0.00;0.00;0.62;0.00;0.00;0.62;6.53;5.77;;;21.30;26.20;;;;;;2272459;61;20823;-60
2021/01/23 05:00:07;0.00;0.00;0.62;0.00;0.00;0.62;5.07;4.60;;;21.30;26.20;;;;;;2257725;61;20398;-60
2021/01/23 05:03:03;0.00;0.00;0.62;0.00;0.00;0.62;7.40;6.00;;;21.20;26.10;;;;;;2258380;61;20410;-58
2021/01/23 05:06:04;0.00;0.00;0.62;0.00;0.00;0.62;6.17;5.57;;;21.20;26.10;;;;;;2390287;53;20398;-61
2021/01/23 05:08:49;0.00;0.00;0.62;0.00;0.00;0.62;5.53;4.97;;;21.20;26.10;;;;;;2257940;61;20383;-61
2021/01/23 05:11:49;0.00;0.00;0.62;0.00;0.00;0.62;5.43;4.90;;;21.10;26.10;;;;;;2295601;53;20383;-60
2021/01/23 05:14:34;0.00;0.00;0.62;0.00;0.00;0.62;4.70;4.00;;;21.10;26.20;;;;;;2258015;61;20379;-61
2021/01/23 05:17:19;0.00;0.00;0.62;0.00;0.00;0.62;5.10;4.60;;;21.10;26.10;;;;;;2255857;61;20384;-61
2021/01/23 05:20:06;0.00;0.00;0.62;0.00;0.00;0.62;4.70;4.30;;;21.00;26.10;;;;;;2255279;61;20383;-61
2021/01/23 05:22:51;0.00;0.00;0.62;0.00;0.00;0.62;7.53;5.07;;;21.00;26.10;;;;;;2257858;61;20471;-60
2021/01/23 05:25:37;0.00;0.00;0.62;0.00;0.00;0.62;4.40;4.00;;;21.00;26.10;;;;;;2257743;61;20375;-60
2021/01/23 05:28:28;0.00;0.00;0.62;0.00;0.00;0.62;5.70;4.57;;;21.00;26.10;;;;;;2407373;53;20371;-60
2021/01/23 05:31:16;0.00;0.00;0.62;0.00;0.00;0.62;4.60;4.17;;;21.00;26.10;;;;;;2257794;61;20442;-61
2021/01/23 05:34:25;0.00;0.00;0.62;0.00;0.00;0.62;5.30;4.70;;;21.00;26.10;;;;;;2257338;61;20390;-61
2021/01/23 05:37:10;0.00;0.00;0.62;0.00;0.00;0.62;4.80;4.30;;;20.90;26.00;;;;;;2256326;61;20423;-58
2021/01/23 05:39:55;0.00;0.00;0.62;0.00;0.00;0.62;5.30;4.13;;;20.90;26.00;;;;;;2383141;53;20402;-60
2021/01/23 05:42:44;0.00;0.00;0.62;0.00;0.00;0.62;4.73;4.33;;;20.90;26.10;;;;;;2257652;61;20652;-61
2021/01/23 05:45:29;0.00;0.00;0.62;0.00;0.00;0.62;6.00;4.83;;;20.90;26.00;;;;;;2257843;61;20414;-61
2021/01/23 05:48:15;0.00;0.00;0.62;0.00;0.00;0.62;5.47;4.93;;;20.80;25.90;;;;;;2257667;61;20370;-60
2021/01/23 05:51:01;0.00;0.00;0.62;0.00;0.00;0.62;4.97;4.17;;;20.80;25.90;;;;;;2257749;61;20604;-59
2021/01/23 05:53:47;0.00;0.00;0.62;0.00;0.00;0.62;5.10;4.60;;;20.80;25.90;;;;;;2257701;61;20380;-61
2021/01/23 05:56:32;0.00;0.00;0.62;0.00;0.00;0.62;5.87;4.40;;;20.80;25.90;;;;;;2257736;61;20367;-60
2021/01/23 05:59:17;0.00;0.00;0.62;0.00;0.00;0.62;7.83;5.43;;;20.80;25.90;;;;;;2398446;53;20443;-61
2021/01/23 06:02:03;0.00;0.00;0.62;0.00;0.00;0.62;6.43;5.83;;;20.70;25.80;;;;;;2257498;61;20387;-60
2021/01/23 06:04:50;0.00;0.00;0.62;0.00;0.00;0.62;5.37;4.93;;;20.70;25.90;;;;;;2258003;61;20371;-60
2021/01/23 06:07:44;0.00;0.00;0.62;0.00;0.00;0.62;5.67;4.60;;;20.70;25.80;;;;;;2257769;61;20482;-61
2021/01/23 06:10:50;0.00;0.00;0.62;0.00;0.00;0.62;5.27;4.77;;;20.70;25.90;;;;;;2257520;61;20399;-60
2021/01/23 06:13:38;0.00;0.00;0.62;0.00;0.00;0.62;5.97;4.73;;;20.60;25.80;;;;;;2257784;61;20365;-61
2021/01/23 06:16:39;0.00;0.00;0.62;0.00;0.00;0.62;5.93;4.03;;;20.60;25.80;;;;;;2257645;61;20375;-60
2021/01/23 06:19:43;0.00;0.00;0.62;0.00;0.00;0.62;5.27;4.77;;;20.60;25.80;;;;;;2258134;61;20383;-59
2021/01/23 06:22:54;0.00;0.00;0.62;0.00;0.00;0.62;4.37;3.97;;;20.50;25.80;;;;;;2255741;61;20410;-58
2021/01/23 06:26:01;0.00;0.00;0.62;0.00;0.00;0.62;5.30;4.80;;;20.50;25.80;;;;;;2257719;61;20398;-62
2021/01/23 06:28:55;0.00;0.00;0.62;0.00;0.00;0.62;5.00;4.50;;;20.50;25.80;;;;;;2255759;61;20378;-59
2021/01/23 06:31:40;0.00;0.00;0.62;0.00;0.00;0.62;5.73;5.03;;;20.50;25.80;;;;;;2257408;61;20390;-61
2021/01/23 06:34:26;0.00;0.00;0.62;0.00;0.00;0.62;4.90;4.30;;;20.50;25.70;;;;;;2257859;61;20371;-60
2021/01/23 06:37:29;0.00;0.00;0.62;0.00;0.00;0.62;4.83;4.33;;;20.40;25.60;;;;;;2257482;61;20463;-60
2021/01/23 06:40:15;0.00;0.00;0.62;0.00;0.00;0.62;5.20;4.70;;;20.40;25.60;;;;;;2257182;61;20572;-60
2021/01/23 06:43:05;0.00;0.00;0.62;0.00;0.00;0.62;4.37;3.97;;;20.40;25.60;;;;;;2579755;45;20387;-61
2021/01/23 06:45:50;0.00;0.00;0.62;0.00;0.00;0.62;6.00;5.40;;;20.30;25.60;;;;;;2257539;61;20638;-60
2021/01/23 06:48:34;0.00;0.00;0.62;0.00;0.00;0.62;5.67;4.93;;;20.30;25.60;;;;;;2257749;61;20727;-61
2021/01/23 06:51:19;0.00;0.00;0.62;0.00;0.00;0.62;5.50;5.00;;;20.30;25.60;;;;;;2380823;53;20507;-60
2021/01/23 06:54:13;0.00;0.00;0.62;0.00;0.00;0.62;4.87;4.47;;;20.30;25.70;;;;;;2257558;61;20363;-61
2021/01/23 06:57:00;0.00;0.00;0.62;0.00;0.00;0.62;5.50;4.63;;;20.30;25.70;;;;;;2257498;61;20644;-61
2021/01/23 06:59:48;0.00;0.00;0.62;0.00;0.00;0.62;5.43;4.43;;;20.20;25.60;;;;;;2258940;61;20373;-60
2021/01/23 07:02:33;0.00;0.00;0.62;0.00;0.00;0.62;6.50;5.80;;;20.20;25.50;;;;;;2391769;53;20475;-61
2021/01/23 07:05:17;0.00;0.00;0.62;0.00;0.00;0.62;8.73;6.50;;;20.20;25.40;;;;;;2257482;61;20723;-61
2021/01/23 07:08:02;0.00;0.00;0.62;0.00;0.00;0.62;6.30;5.70;;;20.20;25.10;;;;;;2257554;61;20766;-61
2021/01/23 07:11:10;0.00;0.00;0.62;0.00;0.00;0.62;4.60;4.10;;;20.10;25.00;;;;;;2303769;53;20644;-60
2021/01/23 07:14:02;0.00;0.00;0.62;0.00;0.00;0.62;6.00;5.33;;;20.10;25.20;;;;;;2396162;53;20347;-60
2021/01/23 07:16:55;0.00;0.00;0.62;0.00;0.00;0.62;8.53;4.90;;;20.00;25.10;;;;;;2257504;61;20731;-61
2021/01/23 07:19:40;0.00;0.00;0.62;0.00;0.00;0.62;6.40;5.80;;;20.00;25.20;;;;;;2257565;61;20358;-61
2021/01/23 07:22:25;0.00;0.00;0.62;0.00;0.00;0.62;5.40;4.80;;;20.00;25.20;;;;;;2257265;61;20801;-61
2021/01/23 07:25:13;0.00;0.00;0.62;0.00;0.00;0.62;5.03;4.40;;;19.90;25.20;;;;;;2406652;53;20739;-61
2021/01/23 07:27:58;0.00;0.00;0.62;0.00;0.00;0.62;5.10;4.60;;;19.90;25.20;;;;;;2257342;61;20455;-60
2021/01/23 07:30:44;0.00;0.00;0.62;0.00;0.00;0.62;5.30;4.30;;;19.90;25.30;;;;;;2257554;61;20422;-61
2021/01/23 07:33:32;0.00;0.00;0.62;0.00;0.00;0.62;5.03;4.53;;;19.90;25.40;;;;;;2624555;45;20576;-60
2021/01/23 07:36:33;0.00;0.00;0.62;0.00;0.00;0.62;5.43;4.67;;;19.80;25.40;;;;;;2257021;61;20379;-60
2021/01/23 07:39:20;0.00;0.00;0.62;0.00;0.00;0.62;6.40;4.20;;;19.80;25.40;;;;;;2257461;61;20367;-61
2021/01/23 07:42:06;0.00;0.00;0.62;0.00;0.00;0.62;5.50;4.50;;;19.80;25.50;;;;;;2257436;61;20778;-60
2021/01/23 07:44:51;0.00;0.00;0.62;0.00;0.00;0.62;4.33;3.60;;;19.80;25.50;;;;;;2257392;61;20419;-61
2021/01/23 07:47:37;0.00;0.00;0.62;0.00;0.00;0.62;4.83;4.43;;;19.80;25.40;;;;;;2257304;61;20403;-60
2021/01/23 07:50:23;0.00;0.00;0.62;0.00;0.00;0.62;6.53;4.60;;;19.80;25.50;;;;;;2257154;61;20375;-60
2021/01/23 07:53:15;0.00;0.00;0.62;0.00;0.00;0.62;4.90;4.10;;;19.80;25.50;;;;;;2257425;61;20463;-60
2021/01/23 07:56:00;0.00;0.00;0.62;0.00;0.00;0.62;4.83;4.23;;;19.80;25.50;;;;;;2357404;53;20391;-59
2021/01/23 07:58:48;0.00;0.00;0.62;0.00;0.00;0.62;5.90;5.00;;;19.80;25.50;;;;;;2256786;61;20375;-61
2021/01/23 08:01:32;0.00;0.00;0.62;0.00;0.00;0.62;5.00;4.50;;;19.80;25.50;;;;;;2331426;53;20391;-61
2021/01/23 08:04:33;0.00;0.00;0.62;0.00;0.00;0.62;5.83;4.30;;;19.80;25.50;;;;;;2387952;53;20819;-60
2021/01/23 08:07:24;0.00;0.00;0.62;0.00;0.00;0.62;4.30;3.90;;;19.80;26.10;;;;;;2257418;61;20383;-60
2021/01/23 08:10:16;0.00;0.00;0.62;0.00;0.00;0.62;3.70;3.40;;;19.70;25.50;;;;;;2257383;61;20775;-61
2021/01/23 08:13:03;0.00;0.00;0.62;0.00;0.00;0.62;5.00;4.50;;;19.70;25.50;;;;;;2257548;61;20380;-61
2021/01/23 08:15:48;0.00;0.00;0.62;0.00;0.00;0.62;5.13;4.63;;;19.80;25.60;;;;;;2257197;61;20370;-60
2021/01/23 08:18:32;0.00;0.00;0.62;0.00;0.00;0.62;5.70;4.93;;;19.80;25.60;;;;;;2257299;61;20375;-60
2021/01/23 08:21:18;0.00;0.00;0.62;0.00;0.00;0.62;6.00;4.53;;;19.80;25.70;;;;;;2257104;61;20394;-61
2021/01/23 08:24:04;0.00;0.00;0.62;0.00;0.00;0.62;5.37;4.60;;;19.80;25.60;;;;;;2257352;61;20387;-61
2021/01/23 08:26:49;0.00;0.00;0.62;0.00;0.00;0.62;5.77;5.03;;;19.80;25.60;;;;;;2402580;53;20367;-61
2021/01/23 08:29:41;0.00;0.00;0.62;0.00;0.00;0.62;6.07;4.63;;;19.80;25.60;;;;;;2257233;61;20370;-61
2021/01/23 08:32:26;0.00;0.00;0.62;0.00;0.00;0.62;6.50;5.33;;;19.80;25.70;;;;;;2257594;61;20446;-60
2021/01/23 08:35:11;0.00;0.00;0.62;0.00;0.00;0.62;4.63;3.90;;;19.70;25.60;;;;;;2257260;61;20411;-61
2021/01/23 08:37:57;0.00;0.00;0.62;0.00;0.00;0.62;5.07;4.10;;;19.80;25.70;;;;;;2257104;61;20386;-61
2021/01/23 08:40:41;0.00;0.00;0.62;0.00;0.00;0.62;5.00;4.13;;;19.80;25.70;;;;;;2257182;61;20375;-61
2021/01/23 08:43:28;0.00;0.00;0.62;0.00;0.00;0.62;4.33;3.93;;;19.80;25.70;;;;;;2257154;61;20792;-61
2021/01/23 08:46:12;0.00;0.00;0.62;0.00;0.00;0.62;5.20;4.63;;;19.70;25.70;;;;;;2405472;53;20359;-60
2021/01/23 08:48:59;0.00;0.00;0.62;0.00;0.00;0.62;5.60;4.50;;;19.70;25.60;;;;;;2257861;61;20406;-61
2021/01/23 08:51:44;0.00;0.00;0.62;0.00;0.00;0.62;6.30;5.10;;;19.80;25.70;;;;;;2257901;61;20402;-60
2021/01/23 08:54:29;0.00;0.00;0.62;0.00;0.00;0.62;5.70;5.13;;;19.80;25.70;;;;;;2394983;53;20371;-60
2021/01/23 08:57:14;0.00;0.00;0.62;0.00;0.00;0.62;5.57;4.40;;;19.80;25.70;;;;;;2310457;58;20486;-61
2021/01/23 08:59:58;0.00;0.00;0.62;0.00;0.00;0.62;4.13;3.70;;;19.80;25.70;;;;;;2257494;61;20437;-61
2021/01/23 09:02:43;0.00;0.00;0.62;0.00;0.00;0.62;4.83;4.30;;;19.80;25.70;;;;;;2258144;61;20383;-60
2021/01/23 09:05:28;0.00;0.00;0.62;0.00;0.00;0.62;5.00;4.27;;;19.80;25.80;;;;;;2257015;61;20442;-61
2021/01/23 09:08:13;0.00;0.00;0.62;0.00;0.00;0.62;7.00;4.70;;;19.80;25.80;;;;;;2257773;61;20593;-61
2021/01/23 09:10:59;0.00;0.00;0.62;0.00;0.00;0.62;5.20;4.70;;;19.80;25.80;;;;;;2256202;61;20404;-64
2021/01/23 09:13:43;0.00;0.00;0.62;0.00;0.00;0.62;6.27;4.30;;;19.80;25.80;;;;;;2257858;61;20739;-61
2021/01/23 09:16:28;0.00;0.00;0.62;0.00;0.00;0.62;4.97;4.47;;;19.80;25.80;;;;;;2258045;61;20390;-60
2021/01/23 09:19:13;0.00;0.00;0.62;0.00;0.00;0.62;5.70;4.40;;;19.80;25.90;;;;;;2257616;61;20504;-60
2021/01/23 09:21:58;0.00;0.00;0.62;0.00;0.00;0.62;5.37;4.87;;;19.80;25.80;;;;;;2404531;53;20434;-60
2021/01/23 09:24:43;0.00;0.00;0.62;0.00;0.00;0.62;6.10;5.20;;;19.80;25.80;;;;;;2257635;61;20371;-61
2021/01/23 09:27:29;0.00;0.00;0.62;0.00;0.00;0.62;6.17;5.57;;;19.80;25.70;;;;;;2258470;61;20390;-61
2021/01/23 09:30:17;0.00;0.00;0.62;0.00;0.00;0.62;5.63;3.97;;;19.80;25.60;;;;;;2385257;45;20398;-60
2021/01/23 09:33:01;0.00;0.00;0.62;0.00;0.00;0.62;6.60;4.90;;;19.80;25.60;;;;;;2257139;61;20624;-62
2021/01/23 09:35:46;0.00;0.00;0.62;0.00;0.00;0.62;7.57;4.73;;;19.80;25.60;;;;;;2257727;61;20363;-63
2021/01/23 09:38:30;0.00;0.00;0.62;0.00;0.00;0.62;4.73;4.00;;;19.80;25.60;;;;;;2257374;61;20399;-61
2021/01/23 09:41:15;0.00;0.00;0.62;0.00;0.00;0.62;6.37;3.77;;;19.80;25.70;;;;;;2257449;61;20395;-62
2021/01/23 09:44:01;0.00;0.00;0.62;0.00;0.00;0.62;6.73;5.00;;;19.80;25.70;;;;;;2257814;61;20371;-61
2021/01/23 09:46:46;0.00;0.00;0.62;0.00;0.00;0.62;4.33;3.93;;;19.80;25.70;;;;;;2258067;61;20434;-62
2021/01/23 09:49:30;0.00;0.00;0.62;0.00;0.00;0.62;6.13;5.40;;;19.80;25.70;;;;;;2400699;53;20363;-59
2021/01/23 09:52:15;0.00;0.00;0.62;0.00;0.00;0.62;9.00;4.00;;;19.80;25.60;;;;;;2257605;61;20426;-61
2021/01/23 09:55:00;0.00;0.00;0.62;0.00;0.00;0.62;5.57;4.20;;;19.80;25.60;;;;;;2257630;61;20595;-61
2021/01/23 09:57:45;0.00;0.00;0.62;0.00;0.00;0.62;5.10;3.80;;;19.90;25.70;;;;;;2389771;53;20386;-59
2021/01/23 10:00:30;0.00;0.00;0.62;0.00;0.00;0.62;6.50;4.57;;;19.80;25.70;;;;;;2257404;61;20374;-59
2021/01/23 10:03:15;0.00;0.00;0.62;0.00;0.00;0.62;4.37;3.97;;;19.90;25.70;;;;;;2257797;61;20375;-59
2021/01/23 10:06:00;0.00;0.00;0.62;0.00;0.00;0.62;6.70;4.13;;;19.80;25.60;;;;;;2257912;61;20368;-61
2021/01/23 10:08:44;0.00;0.00;0.62;0.00;0.00;0.62;5.00;4.50;;;19.80;26.10;;;;;;2257003;61;20439;-60
2021/01/23 10:11:29;0.00;0.00;0.62;0.00;0.00;0.62;6.00;4.33;;;19.90;25.50;;;;;;2312492;53;20391;-62
2021/01/23 10:14:13;0.00;0.00;0.62;0.00;0.00;0.62;4.33;3.37;;;19.80;25.50;;;;;;2256758;61;20576;-61
2021/01/23 10:16:59;0.00;0.00;0.62;0.00;0.00;0.62;4.07;3.00;;;19.80;25.60;;;;;;2292408;53;20758;-62
2021/01/23 10:19:43;0.00;0.00;0.62;0.00;0.00;0.62;3.03;2.73;;;19.90;26.30;;;;;;2769545;45;20332;-62
2021/01/23 10:22:28;0.00;0.00;0.62;0.00;0.00;0.62;4.73;3.17;;;19.90;25.90;;;;;;2256133;61;20446;-60
2021/01/23 10:25:13;0.00;0.00;0.62;0.00;0.00;0.62;2.60;2.40;;;19.90;25.90;;;;;;2257678;61;20398;-60
2021/01/23 10:27:57;0.00;0.00;0.62;0.00;0.00;0.62;5.40;2.70;;;19.90;26.00;;;;;;2257516;61;20575;-60
2021/01/23 10:30:42;0.00;0.00;0.62;0.00;0.00;0.62;3.70;2.90;;;20.00;26.00;;;;;;2257541;61;20370;-61
2021/01/23 10:33:27;0.00;0.00;0.62;0.00;0.00;0.62;4.13;2.60;;;20.00;26.10;;;;;;2257633;61;20472;-63
2021/01/23 10:36:12;0.00;0.00;0.62;0.00;0.00;0.62;3.73;3.00;;;20.00;26.10;;;;;;2257669;61;20480;-62
2021/01/23 10:38:56;0.00;0.00;0.62;0.00;0.00;0.62;3.17;2.33;;;20.00;26.20;;;;;;2257709;61;20406;-60
2021/01/23 10:41:41;0.00;0.00;0.62;0.00;0.00;0.62;2.53;1.83;;;20.10;26.20;;;;;;2257300;61;20386;-61
2021/01/23 10:44:26;0.00;0.00;0.62;0.00;0.00;0.62;3.10;2.40;;;20.10;26.30;;;;;;2257641;61;20370;-59
2021/01/23 10:47:12;0.00;0.00;0.62;0.00;0.00;0.62;4.10;3.17;;;20.20;26.30;;;;;;2257599;61;20383;-59
2021/01/23 10:49:58;0.00;0.00;0.62;0.00;0.00;0.62;5.90;3.43;;;20.20;26.30;;;;;;2257767;61;20351;-60
2021/01/23 10:52:43;0.00;0.00;0.62;0.00;0.00;0.62;3.03;2.73;;;20.20;26.30;;;;;;2257946;61;20453;-58
2021/01/23 10:55:27;0.00;0.00;0.62;0.00;0.00;0.62;5.13;3.50;;;20.30;26.50;;;;;;2257327;61;20649;-60
2021/01/23 10:58:12;0.00;0.00;0.62;0.00;0.00;0.62;5.47;2.90;;;20.30;26.50;;;;;;2257653;61;20724;-61